sensor_id;sensor_type;location;lat;lon;timestamp;P1;durP1;ratioP1;P2;durP2;ratioP2
3465;SDS011;1747;48.884;9.160;2023-09-18T00:02:13;3.67;;;3.17;;
3465;SDS011;1747;48.884;9.160;2023-09-18T00:04:41;5.53;;;3.28;;
3465;SDS011;1747;48.884;9.160;2023-09-18T00:07:08;7.65;;;3.60;;
3465;SDS011;1747;48.884;9.160;2023-09-18T00:09:35;4.35;;;3.20;;
3465;SDS011;1747;48.884;9.160;2023-09-18T00:12:02;5.93;;;3.78;;
3465;SDS011;1747;48.884;9.160;2023-09-18T00:14:30;5.35;;;3.17;;
3465;SDS011;1747;48.884;9.160;2023-09-18T00:16:57;5.28;;;3.55;;
3465;SDS011;1747;48.884;9.160;2023-09-18T00:19:23;5.47;;;2.90;;
3465;SDS011;1747;48.884;9.160;2023-09-18T00:21:52;4.47;;;3.25;;
3465;SDS011;1747;48.884;9.160;2023-09-18T00:24:19;6.82;;;3.17;;
3465;SDS011;1747;48.884;9.160;2023-09-18T00:26:46;6.03;;;3.13;;
3465;SDS011;1747;48.884;9.160;2023-09-18T00:29:13;4.90;;;3.28;;
3465;SDS011;1747;48.884;9.160;2023-09-18T00:31:40;5.70;;;3.30;;
3465;SDS011;1747;48.884;9.160;2023-09-18T00:34:07;6.68;;;3.35;;
3465;SDS011;1747;48.884;9.160;2023-09-18T00:36:34;5.40;;;3.60;;
3465;SDS011;1747;48.884;9.160;2023-09-18T00:39:02;7.22;;;3.70;;
3465;SDS011;1747;48.884;9.160;2023-09-18T00:41:29;4.85;;;3.00;;
3465;SDS011;1747;48.884;9.160;2023-09-18T00:43:56;7.10;;;3.40;;
3465;SDS011;1747;48.884;9.160;2023-09-18T00:46:23;4.80;;;3.35;;
3465;SDS011;1747;48.884;9.160;2023-09-18T00:48:50;7.15;;;3.28;;
3465;SDS011;1747;48.884;9.160;2023-09-18T00:51:17;6.03;;;3.17;;
3465;SDS011;1747;48.884;9.160;2023-09-18T00:53:44;4.03;;;3.60;;
3465;SDS011;1747;48.884;9.160;2023-09-18T00:56:14;7.43;;;4.40;;
3465;SDS011;1747;48.884;9.160;2023-09-18T00:58:42;4.68;;;3.63;;
3465;SDS011;1747;48.884;9.160;2023-09-18T01:01:11;6.72;;;3.70;;
3465;SDS011;1747;48.884;9.160;2023-09-18T01:03:41;4.10;;;3.50;;
3465;SDS011;1747;48.884;9.160;2023-09-18T01:06:08;5.43;;;3.80;;
3465;SDS011;1747;48.884;9.160;2023-09-18T01:08:35;8.60;;;3.47;;
3465;SDS011;1747;48.884;9.160;2023-09-18T01:11:04;5.07;;;3.35;;
3465;SDS011;1747;48.884;9.160;2023-09-18T01:13:48;5.30;;;3.75;;
3465;SDS011;1747;48.884;9.160;2023-09-18T01:16:23;5.18;;;3.92;;
3465;SDS011;1747;48.884;9.160;2023-09-18T01:18:53;5.60;;;3.42;;
3465;SDS011;1747;48.884;9.160;2023-09-18T01:21:20;5.63;;;3.92;;
3465;SDS011;1747;48.884;9.160;2023-09-18T01:23:48;5.93;;;4.30;;
3465;SDS011;1747;48.884;9.160;2023-09-18T01:26:16;7.47;;;4.57;;
3465;SDS011;1747;48.884;9.160;2023-09-18T01:28:43;6.70;;;4.18;;
3465;SDS011;1747;48.884;9.160;2023-09-18T01:31:10;6.25;;;4.35;;
3465;SDS011;1747;48.884;9.160;2023-09-18T01:33:37;8.70;;;3.78;;
3465;SDS011;1747;48.884;9.160;2023-09-18T01:36:05;6.40;;;4.13;;
3465;SDS011;1747;48.884;9.160;2023-09-18T01:38:33;5.47;;;4.00;;
3465;SDS011;1747;48.884;9.160;2023-09-18T01:41:03;5.35;;;4.25;;
3465;SDS011;1747;48.884;9.160;2023-09-18T01:43:30;8.80;;;4.60;;
3465;SDS011;1747;48.884;9.160;2023-09-18T01:45:57;7.50;;;4.68;;
3465;SDS011;1747;48.884;9.160;2023-09-18T01:48:24;8.27;;;4.68;;
3465;SDS011;1747;48.884;9.160;2023-09-18T01:50:50;7.75;;;4.57;;
3465;SDS011;1747;48.884;9.160;2023-09-18T01:53:17;9.35;;;4.40;;
3465;SDS011;1747;48.884;9.160;2023-09-18T01:55:44;8.63;;;4.40;;
3465;SDS011;1747;48.884;9.160;2023-09-18T01:58:14;7.22;;;3.90;;
3465;SDS011;1747;48.884;9.160;2023-09-18T02:00:40;7.07;;;3.70;;
3465;SDS011;1747;48.884;9.160;2023-09-18T02:03:07;3.55;;;2.50;;
3465;SDS011;1747;48.884;9.160;2023-09-18T02:05:34;6.57;;;2.63;;
3465;SDS011;1747;48.884;9.160;2023-09-18T02:08:01;3.15;;;2.30;;
3465;SDS011;1747;48.884;9.160;2023-09-18T02:10:28;5.10;;;2.13;;
3465;SDS011;1747;48.884;9.160;2023-09-18T02:12:55;9.18;;;2.92;;
3465;SDS011;1747;48.884;9.160;2023-09-18T02:15:23;8.05;;;2.40;;
3465;SDS011;1747;48.884;9.160;2023-09-18T02:17:50;6.20;;;2.30;;
3465;SDS011;1747;48.884;9.160;2023-09-18T02:20:18;7.18;;;2.60;;
3465;SDS011;1747;48.884;9.160;2023-09-18T02:22:45;5.72;;;2.95;;
3465;SDS011;1747;48.884;9.160;2023-09-18T02:25:13;7.45;;;3.42;;
3465;SDS011;1747;48.884;9.160;2023-09-18T02:27:40;5.03;;;3.05;;
3465;SDS011;1747;48.884;9.160;2023-09-18T02:30:07;8.70;;;2.63;;
3465;SDS011;1747;48.884;9.160;2023-09-18T02:32:36;5.32;;;3.00;;
3465;SDS011;1747;48.884;9.160;2023-09-18T02:35:03;5.97;;;2.60;;
3465;SDS011;1747;48.884;9.160;2023-09-18T02:37:32;6.75;;;2.65;;
3465;SDS011;1747;48.884;9.160;2023-09-18T02:39:59;7.50;;;3.25;;
3465;SDS011;1747;48.884;9.160;2023-09-18T02:42:25;10.38;;;2.92;;
3465;SDS011;1747;48.884;9.160;2023-09-18T02:44:52;8.27;;;2.85;;
3465;SDS011;1747;48.884;9.160;2023-09-18T02:47:19;9.95;;;3.33;;
3465;SDS011;1747;48.884;9.160;2023-09-18T02:49:47;10.70;;;2.88;;
3465;SDS011;1747;48.884;9.160;2023-09-18T02:52:14;13.18;;;3.60;;
3465;SDS011;1747;48.884;9.160;2023-09-18T02:54:40;17.05;;;3.50;;
3465;SDS011;1747;48.884;9.160;2023-09-18T02:57:07;6.63;;;2.85;;
3465;SDS011;1747;48.884;9.160;2023-09-18T02:59:34;13.15;;;2.88;;
3465;SDS011;1747;48.884;9.160;2023-09-18T03:02:01;8.43;;;2.78;;
3465;SDS011;1747;48.884;9.160;2023-09-18T03:04:28;5.60;;;2.47;;
3465;SDS011;1747;48.884;9.160;2023-09-18T03:06:57;9.85;;;2.88;;
3465;SDS011;1747;48.884;9.160;2023-09-18T03:09:23;7.45;;;2.90;;
3465;SDS011;1747;48.884;9.160;2023-09-18T03:11:50;7.18;;;2.72;;
3465;SDS011;1747;48.884;9.160;2023-09-18T03:14:17;6.03;;;2.33;;
3465;SDS011;1747;48.884;9.160;2023-09-18T03:16:44;12.80;;;3.00;;
3465;SDS011;1747;48.884;9.160;2023-09-18T03:19:10;10.43;;;2.88;;
3465;SDS011;1747;48.884;9.160;2023-09-18T03:21:37;9.10;;;2.83;;
3465;SDS011;1747;48.884;9.160;2023-09-18T03:24:06;8.38;;;2.60;;
3465;SDS011;1747;48.884;9.160;2023-09-18T03:26:33;7.43;;;2.83;;
3465;SDS011;1747;48.884;9.160;2023-09-18T03:29:00;6.40;;;2.35;;
3465;SDS011;1747;48.884;9.160;2023-09-18T03:31:27;5.32;;;2.47;;
3465;SDS011;1747;48.884;9.160;2023-09-18T03:33:54;4.18;;;2.38;;
3465;SDS011;1747;48.884;9.160;2023-09-18T03:36:21;9.23;;;2.50;;
3465;SDS011;1747;48.884;9.160;2023-09-18T03:38:48;4.75;;;2.65;;
3465;SDS011;1747;48.884;9.160;2023-09-18T03:41:16;8.68;;;2.80;;
3465;SDS011;1747;48.884;9.160;2023-09-18T03:43:43;6.32;;;2.88;;
3465;SDS011;1747;48.884;9.160;2023-09-18T03:46:10;5.13;;;2.45;;
3465;SDS011;1747;48.884;9.160;2023-09-18T03:48:37;7.70;;;2.78;;
3465;SDS011;1747;48.884;9.160;2023-09-18T03:51:03;9.73;;;2.85;;
3465;SDS011;1747;48.884;9.160;2023-09-18T03:53:31;7.50;;;2.45;;
3465;SDS011;1747;48.884;9.160;2023-09-18T03:55:58;12.38;;;3.22;;
3465;SDS011;1747;48.884;9.160;2023-09-18T03:58:27;8.80;;;2.67;;
3465;SDS011;1747;48.884;9.160;2023-09-18T04:00:53;5.70;;;2.97;;
3465;SDS011;1747;48.884;9.160;2023-09-18T04:03:21;6.88;;;2.92;;
3465;SDS011;1747;48.884;9.160;2023-09-18T04:05:48;8.93;;;2.60;;
3465;SDS011;1747;48.884;9.160;2023-09-18T04:08:15;13.40;;;3.47;;
3465;SDS011;1747;48.884;9.160;2023-09-18T04:10:41;11.90;;;2.85;;
3465;SDS011;1747;48.884;9.160;2023-09-18T04:13:10;9.43;;;2.63;;
3465;SDS011;1747;48.884;9.160;2023-09-18T04:15:38;6.97;;;2.13;;
3465;SDS011;1747;48.884;9.160;2023-09-18T04:18:05;7.63;;;3.15;;
3465;SDS011;1747;48.884;9.160;2023-09-18T04:20:32;7.93;;;2.42;;
3465;SDS011;1747;48.884;9.160;2023-09-18T04:25:47;7.05;;;2.95;;
3465;SDS011;1747;48.884;9.160;2023-09-18T04:28:16;9.77;;;2.92;;
3465;SDS011;1747;48.884;9.160;2023-09-18T04:30:45;9.65;;;3.63;;
3465;SDS011;1747;48.884;9.160;2023-09-18T04:33:13;7.05;;;2.60;;
3465;SDS011;1747;48.884;9.160;2023-09-18T04:35:40;6.57;;;2.78;;
3465;SDS011;1747;48.884;9.160;2023-09-18T04:38:07;7.03;;;2.70;;
3465;SDS011;1747;48.884;9.160;2023-09-18T04:40:35;9.43;;;2.70;;
3465;SDS011;1747;48.884;9.160;2023-09-18T04:43:02;7.50;;;2.90;;
3465;SDS011;1747;48.884;9.160;2023-09-18T04:45:29;8.70;;;2.60;;
3465;SDS011;1747;48.884;9.160;2023-09-18T04:47:58;6.65;;;2.20;;
3465;SDS011;1747;48.884;9.160;2023-09-18T04:50:24;7.68;;;2.67;;
3465;SDS011;1747;48.884;9.160;2023-09-18T04:52:52;8.05;;;2.28;;
3465;SDS011;1747;48.884;9.160;2023-09-18T04:55:19;4.95;;;2.30;;
3465;SDS011;1747;48.884;9.160;2023-09-18T04:57:46;6.47;;;2.58;;
3465;SDS011;1747;48.884;9.160;2023-09-18T05:00:14;7.25;;;2.63;;
3465;SDS011;1747;48.884;9.160;2023-09-18T05:02:42;10.88;;;3.22;;
3465;SDS011;1747;48.884;9.160;2023-09-18T05:05:10;8.80;;;2.83;;
3465;SDS011;1747;48.884;9.160;2023-09-18T05:07:38;7.80;;;3.22;;
3465;SDS011;1747;48.884;9.160;2023-09-18T05:10:05;7.93;;;3.00;;
3465;SDS011;1747;48.884;9.160;2023-09-18T05:12:33;8.35;;;2.70;;
3465;SDS011;1747;48.884;9.160;2023-09-18T05:15:00;9.23;;;2.92;;
3465;SDS011;1747;48.884;9.160;2023-09-18T05:17:42;10.55;;;3.00;;
3465;SDS011;1747;48.884;9.160;2023-09-18T05:20:13;9.15;;;3.10;;
3465;SDS011;1747;48.884;9.160;2023-09-18T05:22:42;7.22;;;3.00;;
3465;SDS011;1747;48.884;9.160;2023-09-18T05:25:09;9.35;;;3.05;;
3465;SDS011;1747;48.884;9.160;2023-09-18T05:27:36;11.23;;;3.10;;
3465;SDS011;1747;48.884;9.160;2023-09-18T05:30:09;10.50;;;3.00;;
3465;SDS011;1747;48.884;9.160;2023-09-18T05:32:37;8.18;;;3.15;;
3465;SDS011;1747;48.884;9.160;2023-09-18T05:35:05;7.25;;;2.92;;
3465;SDS011;1747;48.884;9.160;2023-09-18T05:37:38;5.43;;;2.40;;
3465;SDS011;1747;48.884;9.160;2023-09-18T05:40:06;7.65;;;2.80;;
3465;SDS011;1747;48.884;9.160;2023-09-18T05:42:34;8.82;;;3.05;;
3465;SDS011;1747;48.884;9.160;2023-09-18T05:45:02;9.27;;;3.10;;
3465;SDS011;1747;48.884;9.160;2023-09-18T05:47:30;6.63;;;3.08;;
3465;SDS011;1747;48.884;9.160;2023-09-18T05:49:58;8.88;;;3.08;;
3465;SDS011;1747;48.884;9.160;2023-09-18T05:52:25;6.88;;;3.45;;
3465;SDS011;1747;48.884;9.160;2023-09-18T05:54:53;11.57;;;3.53;;
3465;SDS011;1747;48.884;9.160;2023-09-18T05:57:20;9.98;;;3.20;;
3465;SDS011;1747;48.884;9.160;2023-09-18T05:59:47;10.63;;;3.20;;
3465;SDS011;1747;48.884;9.160;2023-09-18T06:02:14;11.93;;;3.45;;
3465;SDS011;1747;48.884;9.160;2023-09-18T06:04:42;10.77;;;3.08;;
3465;SDS011;1747;48.884;9.160;2023-09-18T06:07:09;10.27;;;3.22;;
3465;SDS011;1747;48.884;9.160;2023-09-18T06:09:38;12.10;;;3.30;;
3465;SDS011;1747;48.884;9.160;2023-09-18T06:12:07;17.17;;;3.38;;
3465;SDS011;1747;48.884;9.160;2023-09-18T06:14:36;10.48;;;3.17;;
3465;SDS011;1747;48.884;9.160;2023-09-18T06:17:03;8.07;;;2.90;;
3465;SDS011;1747;48.884;9.160;2023-09-18T06:19:30;8.68;;;3.42;;
3465;SDS011;1747;48.884;9.160;2023-09-18T06:21:58;8.07;;;2.78;;
3465;SDS011;1747;48.884;9.160;2023-09-18T06:24:25;8.27;;;3.00;;
3465;SDS011;1747;48.884;9.160;2023-09-18T06:26:51;12.45;;;3.38;;
3465;SDS011;1747;48.884;9.160;2023-09-18T06:29:20;9.63;;;4.05;;
3465;SDS011;1747;48.884;9.160;2023-09-18T06:31:49;11.15;;;2.83;;
3465;SDS011;1747;48.884;9.160;2023-09-18T06:34:15;10.50;;;3.20;;
3465;SDS011;1747;48.884;9.160;2023-09-18T06:36:42;8.27;;;2.50;;
3465;SDS011;1747;48.884;9.160;2023-09-18T06:39:09;6.18;;;2.90;;
3465;SDS011;1747;48.884;9.160;2023-09-18T06:41:39;8.10;;;2.67;;
3465;SDS011;1747;48.884;9.160;2023-09-18T06:44:06;10.52;;;2.95;;
3465;SDS011;1747;48.884;9.160;2023-09-18T06:46:34;8.27;;;2.70;;
3465;SDS011;1747;48.884;9.160;2023-09-18T06:49:01;9.18;;;2.55;;
3465;SDS011;1747;48.884;9.160;2023-09-18T06:51:28;10.40;;;3.42;;
3465;SDS011;1747;48.884;9.160;2023-09-18T06:53:55;7.85;;;1.95;;
3465;SDS011;1747;48.884;9.160;2023-09-18T06:56:22;5.68;;;2.15;;
3465;SDS011;1747;48.884;9.160;2023-09-18T06:58:49;8.77;;;1.67;;
3465;SDS011;1747;48.884;9.160;2023-09-18T07:01:17;6.40;;;1.88;;
3465;SDS011;1747;48.884;9.160;2023-09-18T07:03:46;7.00;;;2.13;;
3465;SDS011;1747;48.884;9.160;2023-09-18T07:06:13;4.53;;;1.40;;
3465;SDS011;1747;48.884;9.160;2023-09-18T07:08:41;7.03;;;1.50;;
3465;SDS011;1747;48.884;9.160;2023-09-18T07:11:08;5.63;;;1.80;;
3465;SDS011;1747;48.884;9.160;2023-09-18T07:13:35;4.55;;;1.75;;
3465;SDS011;1747;48.884;9.160;2023-09-18T07:16:02;5.43;;;1.90;;
3465;SDS011;1747;48.884;9.160;2023-09-18T07:18:29;4.55;;;1.92;;
3465;SDS011;1747;48.884;9.160;2023-09-18T07:20:57;9.60;;;2.17;;
3465;SDS011;1747;48.884;9.160;2023-09-18T07:23:24;6.18;;;1.90;;
3465;SDS011;1747;48.884;9.160;2023-09-18T07:25:51;5.22;;;1.80;;
3465;SDS011;1747;48.884;9.160;2023-09-18T07:28:18;6.05;;;1.75;;
3465;SDS011;1747;48.884;9.160;2023-09-18T07:30:45;6.63;;;2.03;;
3465;SDS011;1747;48.884;9.160;2023-09-18T07:33:12;4.63;;;1.50;;
3465;SDS011;1747;48.884;9.160;2023-09-18T07:35:42;3.67;;;1.13;;
3465;SDS011;1747;48.884;9.160;2023-09-18T07:38:14;2.63;;;1.33;;
3465;SDS011;1747;48.884;9.160;2023-09-18T07:40:41;6.07;;;1.25;;
3465;SDS011;1747;48.884;9.160;2023-09-18T07:43:08;3.25;;;1.40;;
3465;SDS011;1747;48.884;9.160;2023-09-18T07:45:34;3.08;;;1.38;;
3465;SDS011;1747;48.884;9.160;2023-09-18T07:48:04;8.95;;;1.80;;
3465;SDS011;1747;48.884;9.160;2023-09-18T07:50:31;7.40;;;1.45;;
3465;SDS011;1747;48.884;9.160;2023-09-18T07:52:58;4.53;;;1.20;;
3465;SDS011;1747;48.884;9.160;2023-09-18T07:55:26;4.55;;;1.20;;
3465;SDS011;1747;48.884;9.160;2023-09-18T07:57:54;8.45;;;1.38;;
3465;SDS011;1747;48.884;9.160;2023-09-18T08:00:21;4.03;;;1.02;;
3465;SDS011;1747;48.884;9.160;2023-09-18T08:02:48;4.28;;;1.35;;
3465;SDS011;1747;48.884;9.160;2023-09-18T08:05:15;5.70;;;1.77;;
3465;SDS011;1747;48.884;9.160;2023-09-18T08:07:42;3.83;;;0.93;;
3465;SDS011;1747;48.884;9.160;2023-09-18T08:10:09;4.30;;;1.20;;
3465;SDS011;1747;48.884;9.160;2023-09-18T08:12:39;3.70;;;1.23;;
3465;SDS011;1747;48.884;9.160;2023-09-18T08:15:06;2.92;;;1.17;;
3465;SDS011;1747;48.884;9.160;2023-09-18T08:17:34;5.85;;;1.20;;
3465;SDS011;1747;48.884;9.160;2023-09-18T08:20:01;3.33;;;1.38;;
3465;SDS011;1747;48.884;9.160;2023-09-18T08:22:35;5.38;;;1.60;;
3465;SDS011;1747;48.884;9.160;2023-09-18T08:25:02;2.17;;;1.15;;
3465;SDS011;1747;48.884;9.160;2023-09-18T08:27:30;2.80;;;1.20;;
3465;SDS011;1747;48.884;9.160;2023-09-18T08:29:59;2.60;;;1.08;;
3465;SDS011;1747;48.884;9.160;2023-09-18T08:32:26;2.28;;;1.10;;
3465;SDS011;1747;48.884;9.160;2023-09-18T08:34:55;4.72;;;1.30;;
3465;SDS011;1747;48.884;9.160;2023-09-18T08:37:23;6.47;;;1.20;;
3465;SDS011;1747;48.884;9.160;2023-09-18T08:39:50;1.15;;;0.70;;
3465;SDS011;1747;48.884;9.160;2023-09-18T08:42:17;1.15;;;0.50;;
3465;SDS011;1747;48.884;9.160;2023-09-18T08:44:46;0.80;;;0.70;;
3465;SDS011;1747;48.884;9.160;2023-09-18T08:47:18;2.17;;;0.82;;
3465;SDS011;1747;48.884;9.160;2023-09-18T08:49:45;3.40;;;0.88;;
3465;SDS011;1747;48.884;9.160;2023-09-18T08:52:14;1.35;;;0.60;;
3465;SDS011;1747;48.884;9.160;2023-09-18T08:54:42;3.60;;;0.95;;
3465;SDS011;1747;48.884;9.160;2023-09-18T08:57:09;2.80;;;0.80;;
3465;SDS011;1747;48.884;9.160;2023-09-18T08:59:36;1.75;;;0.68;;
3465;SDS011;1747;48.884;9.160;2023-09-18T09:02:05;3.17;;;0.85;;
3465;SDS011;1747;48.884;9.160;2023-09-18T09:04:37;2.10;;;1.05;;
3465;SDS011;1747;48.884;9.160;2023-09-18T09:07:04;3.05;;;1.02;;
3465;SDS011;1747;48.884;9.160;2023-09-18T09:09:31;3.97;;;1.30;;
3465;SDS011;1747;48.884;9.160;2023-09-18T09:11:58;4.82;;;0.60;;
3465;SDS011;1747;48.884;9.160;2023-09-18T09:14:25;2.50;;;0.90;;
3465;SDS011;1747;48.884;9.160;2023-09-18T09:16:54;4.00;;;0.93;;
3465;SDS011;1747;48.884;9.160;2023-09-18T09:19:29;2.72;;;0.85;;
3465;SDS011;1747;48.884;9.160;2023-09-18T09:21:58;7.15;;;1.10;;
3465;SDS011;1747;48.884;9.160;2023-09-18T09:24:35;2.90;;;1.00;;
3465;SDS011;1747;48.884;9.160;2023-09-18T09:27:03;1.85;;;0.90;;
3465;SDS011;1747;48.884;9.160;2023-09-18T09:29:30;4.82;;;0.90;;
3465;SDS011;1747;48.884;9.160;2023-09-18T09:31:58;2.15;;;1.00;;
3465;SDS011;1747;48.884;9.160;2023-09-18T09:34:38;1.40;;;0.77;;
3465;SDS011;1747;48.884;9.160;2023-09-18T09:37:08;3.40;;;0.90;;
3465;SDS011;1747;48.884;9.160;2023-09-18T09:39:45;2.17;;;0.77;;
3465;SDS011;1747;48.884;9.160;2023-09-18T09:42:15;4.32;;;0.98;;
3465;SDS011;1747;48.884;9.160;2023-09-18T09:44:48;3.92;;;0.90;;
3465;SDS011;1747;48.884;9.160;2023-09-18T09:47:31;2.90;;;0.98;;
3465;SDS011;1747;48.884;9.160;2023-09-18T09:50:01;2.63;;;0.88;;
3465;SDS011;1747;48.884;9.160;2023-09-18T09:52:34;1.63;;;0.80;;
3465;SDS011;1747;48.884;9.160;2023-09-18T09:55:01;3.00;;;0.80;;
3465;SDS011;1747;48.884;9.160;2023-09-18T09:57:30;3.33;;;1.10;;
3465;SDS011;1747;48.884;9.160;2023-09-18T10:00:02;1.75;;;1.02;;
3465;SDS011;1747;48.884;9.160;2023-09-18T10:02:46;3.90;;;1.30;;
3465;SDS011;1747;48.884;9.160;2023-09-18T10:05:15;3.58;;;1.00;;
3465;SDS011;1747;48.884;9.160;2023-09-18T10:07:45;4.63;;;1.00;;
3465;SDS011;1747;48.884;9.160;2023-09-18T10:10:13;3.95;;;0.90;;
3465;SDS011;1747;48.884;9.160;2023-09-18T10:12:40;2.30;;;1.20;;
3465;SDS011;1747;48.884;9.160;2023-09-18T10:15:07;4.53;;;1.10;;
3465;SDS011;1747;48.884;9.160;2023-09-18T10:17:38;2.67;;;0.85;;
3465;SDS011;1747;48.884;9.160;2023-09-18T10:20:12;5.25;;;0.98;;
3465;SDS011;1747;48.884;9.160;2023-09-18T10:22:48;1.08;;;0.73;;
3465;SDS011;1747;48.884;9.160;2023-09-18T10:25:19;3.92;;;1.48;;
3465;SDS011;1747;48.884;9.160;2023-09-18T10:27:49;2.45;;;1.05;;
3465;SDS011;1747;48.884;9.160;2023-09-18T10:30:18;2.65;;;1.00;;
3465;SDS011;1747;48.884;9.160;2023-09-18T10:32:48;4.55;;;1.38;;
3465;SDS011;1747;48.884;9.160;2023-09-18T10:35:16;3.88;;;1.35;;
3465;SDS011;1747;48.884;9.160;2023-09-18T10:37:45;3.40;;;1.35;;
3465;SDS011;1747;48.884;9.160;2023-09-18T10:40:16;5.00;;;1.17;;
3465;SDS011;1747;48.884;9.160;2023-09-18T10:42:44;4.45;;;1.13;;
3465;SDS011;1747;48.884;9.160;2023-09-18T10:45:14;5.45;;;1.10;;
3465;SDS011;1747;48.884;9.160;2023-09-18T10:47:41;2.83;;;1.35;;
3465;SDS011;1747;48.884;9.160;2023-09-18T10:50:10;2.65;;;1.40;;
3465;SDS011;1747;48.884;9.160;2023-09-18T10:52:38;4.70;;;1.23;;
3465;SDS011;1747;48.884;9.160;2023-09-18T10:55:12;1.92;;;1.08;;
3465;SDS011;1747;48.884;9.160;2023-09-18T10:57:49;3.17;;;1.10;;
3465;SDS011;1747;48.884;9.160;2023-09-18T11:00:17;2.65;;;1.00;;
3465;SDS011;1747;48.884;9.160;2023-09-18T11:02:47;4.20;;;1.00;;
3465;SDS011;1747;48.884;9.160;2023-09-18T11:05:25;3.97;;;1.20;;
3465;SDS011;1747;48.884;9.160;2023-09-18T11:10:56;3.28;;;0.90;;
3465;SDS011;1747;48.884;9.160;2023-09-18T11:13:30;4.63;;;1.10;;
3465;SDS011;1747;48.884;9.160;2023-09-18T11:16:01;1.98;;;1.02;;
3465;SDS011;1747;48.884;9.160;2023-09-18T11:18:33;4.63;;;1.45;;
3465;SDS011;1747;48.884;9.160;2023-09-18T11:21:06;3.40;;;1.10;;
3465;SDS011;1747;48.884;9.160;2023-09-18T11:23:35;5.72;;;1.98;;
3465;SDS011;1747;48.884;9.160;2023-09-18T11:26:08;5.85;;;1.40;;
3465;SDS011;1747;48.884;9.160;2023-09-18T11:28:36;4.53;;;1.30;;
3465;SDS011;1747;48.884;9.160;2023-09-18T11:31:04;3.88;;;2.05;;
3465;SDS011;1747;48.884;9.160;2023-09-18T11:33:33;2.55;;;0.80;;
3465;SDS011;1747;48.884;9.160;2023-09-18T11:36:04;2.83;;;1.17;;
3465;SDS011;1747;48.884;9.160;2023-09-18T11:38:33;8.15;;;1.48;;
3465;SDS011;1747;48.884;9.160;2023-09-18T11:43:48;3.20;;;1.30;;
3465;SDS011;1747;48.884;9.160;2023-09-18T11:46:17;2.80;;;1.02;;
3465;SDS011;1747;48.884;9.160;2023-09-18T11:48:46;2.88;;;1.20;;
3465;SDS011;1747;48.884;9.160;2023-09-18T11:51:20;4.10;;;1.50;;
3465;SDS011;1747;48.884;9.160;2023-09-18T11:53:49;3.28;;;1.20;;
3465;SDS011;1747;48.884;9.160;2023-09-18T11:56:21;3.05;;;1.08;;
3465;SDS011;1747;48.884;9.160;2023-09-18T11:58:48;5.38;;;1.40;;
3465;SDS011;1747;48.884;9.160;2023-09-18T12:01:17;4.32;;;1.00;;
3465;SDS011;1747;48.884;9.160;2023-09-18T12:03:44;5.72;;;1.42;;
3465;SDS011;1747;48.884;9.160;2023-09-18T12:06:12;2.30;;;1.00;;
3465;SDS011;1747;48.884;9.160;2023-09-18T12:08:41;3.45;;;1.10;;
3465;SDS011;1747;48.884;9.160;2023-09-18T12:11:08;1.88;;;1.00;;
3465;SDS011;1747;48.884;9.160;2023-09-18T12:13:36;1.98;;;0.80;;
3465;SDS011;1747;48.884;9.160;2023-09-18T12:16:05;3.70;;;0.80;;
3465;SDS011;1747;48.884;9.160;2023-09-18T12:18:34;4.95;;;1.20;;
3465;SDS011;1747;48.884;9.160;2023-09-18T12:21:05;1.75;;;1.10;;
3465;SDS011;1747;48.884;9.160;2023-09-18T12:23:36;3.20;;;1.00;;
3465;SDS011;1747;48.884;9.160;2023-09-18T12:26:04;2.30;;;0.80;;
3465;SDS011;1747;48.884;9.160;2023-09-18T12:28:32;2.72;;;0.90;;
3465;SDS011;1747;48.884;9.160;2023-09-18T12:31:01;2.70;;;0.95;;
3465;SDS011;1747;48.884;9.160;2023-09-18T12:33:33;3.28;;;1.00;;
3465;SDS011;1747;48.884;9.160;2023-09-18T12:36:00;2.35;;;1.00;;
3465;SDS011;1747;48.884;9.160;2023-09-18T12:38:27;3.63;;;1.23;;
3465;SDS011;1747;48.884;9.160;2023-09-18T12:40:55;1.90;;;0.85;;
3465;SDS011;1747;48.884;9.160;2023-09-18T12:43:31;2.63;;;0.95;;
3465;SDS011;1747;48.884;9.160;2023-09-18T12:46:03;3.30;;;0.90;;
3465;SDS011;1747;48.884;9.160;2023-09-18T12:48:31;7.03;;;1.15;;
3465;SDS011;1747;48.884;9.160;2023-09-18T12:51:04;2.03;;;1.00;;
3465;SDS011;1747;48.884;9.160;2023-09-18T12:53:31;3.72;;;1.08;;
3465;SDS011;1747;48.884;9.160;2023-09-18T12:56:05;1.75;;;0.80;;
3465;SDS011;1747;48.884;9.160;2023-09-18T12:58:34;5.28;;;1.50;;
3465;SDS011;1747;48.884;9.160;2023-09-18T13:01:05;8.30;;;1.77;;
3465;SDS011;1747;48.884;9.160;2023-09-18T13:03:35;2.08;;;0.90;;
3465;SDS011;1747;48.884;9.160;2023-09-18T13:06:11;5.13;;;1.85;;
3465;SDS011;1747;48.884;9.160;2023-09-18T13:08:44;1.33;;;0.82;;
3465;SDS011;1747;48.884;9.160;2023-09-18T13:11:12;1.00;;;0.90;;
3465;SDS011;1747;48.884;9.160;2023-09-18T13:13:40;2.67;;;1.02;;
3465;SDS011;1747;48.884;9.160;2023-09-18T13:16:10;1.52;;;1.00;;
3465;SDS011;1747;48.884;9.160;2023-09-18T13:18:38;2.95;;;0.90;;
3465;SDS011;1747;48.884;9.160;2023-09-18T13:21:08;1.90;;;1.00;;
3465;SDS011;1747;48.884;9.160;2023-09-18T13:23:36;4.53;;;0.90;;
3465;SDS011;1747;48.884;9.160;2023-09-18T13:26:04;1.73;;;0.85;;
3465;SDS011;1747;48.884;9.160;2023-09-18T13:28:32;3.42;;;1.10;;
3465;SDS011;1747;48.884;9.160;2023-09-18T13:31:00;4.82;;;1.17;;
3465;SDS011;1747;48.884;9.160;2023-09-18T13:33:31;1.85;;;0.93;;
3465;SDS011;1747;48.884;9.160;2023-09-18T13:35:58;4.93;;;1.00;;
3465;SDS011;1747;48.884;9.160;2023-09-18T13:38:26;4.95;;;1.58;;
3465;SDS011;1747;48.884;9.160;2023-09-18T13:40:52;1.50;;;0.85;;
3465;SDS011;1747;48.884;9.160;2023-09-18T13:43:20;2.40;;;1.10;;
3465;SDS011;1747;48.884;9.160;2023-09-18T13:45:48;2.60;;;1.00;;
3465;SDS011;1747;48.884;9.160;2023-09-18T13:48:16;3.53;;;1.33;;
3465;SDS011;1747;48.884;9.160;2023-09-18T13:50:46;2.08;;;1.23;;
3465;SDS011;1747;48.884;9.160;2023-09-18T13:53:16;2.63;;;0.90;;
3465;SDS011;1747;48.884;9.160;2023-09-18T13:55:43;2.05;;;1.05;;
3465;SDS011;1747;48.884;9.160;2023-09-18T13:58:10;2.95;;;0.98;;
3465;SDS011;1747;48.884;9.160;2023-09-18T14:00:37;2.72;;;1.10;;
3465;SDS011;1747;48.884;9.160;2023-09-18T14:03:06;3.70;;;1.13;;
3465;SDS011;1747;48.884;9.160;2023-09-18T14:05:33;2.05;;;1.00;;
3465;SDS011;1747;48.884;9.160;2023-09-18T14:08:02;4.55;;;1.27;;
3465;SDS011;1747;48.884;9.160;2023-09-18T14:10:30;1.23;;;0.98;;
3465;SDS011;1747;48.884;9.160;2023-09-18T14:12:57;4.47;;;1.02;;
3465;SDS011;1747;48.884;9.160;2023-09-18T14:15:23;1.20;;;0.90;;
3465;SDS011;1747;48.884;9.160;2023-09-18T14:17:51;3.28;;;1.10;;
3465;SDS011;1747;48.884;9.160;2023-09-18T14:20:17;2.85;;;1.13;;
3465;SDS011;1747;48.884;9.160;2023-09-18T14:22:45;3.55;;;1.00;;
3465;SDS011;1747;48.884;9.160;2023-09-18T14:25:16;1.85;;;1.10;;
3465;SDS011;1747;48.884;9.160;2023-09-18T14:27:45;4.00;;;1.05;;
3465;SDS011;1747;48.884;9.160;2023-09-18T14:30:12;2.60;;;1.10;;
3465;SDS011;1747;48.884;9.160;2023-09-18T14:32:39;1.73;;;1.08;;
3465;SDS011;1747;48.884;9.160;2023-09-18T14:35:06;2.17;;;0.90;;
3465;SDS011;1747;48.884;9.160;2023-09-18T14:37:34;3.40;;;1.10;;
3465;SDS011;1747;48.884;9.160;2023-09-18T14:40:01;2.97;;;0.90;;
3465;SDS011;1747;48.884;9.160;2023-09-18T14:42:30;2.22;;;0.93;;
3465;SDS011;1747;48.884;9.160;2023-09-18T14:44:58;2.08;;;1.10;;
3465;SDS011;1747;48.884;9.160;2023-09-18T14:47:26;2.53;;;0.93;;
3465;SDS011;1747;48.884;9.160;2023-09-18T14:49:53;2.67;;;0.80;;
3465;SDS011;1747;48.884;9.160;2023-09-18T14:52:20;1.75;;;1.00;;
3465;SDS011;1747;48.884;9.160;2023-09-18T14:54:50;3.50;;;1.17;;
3465;SDS011;1747;48.884;9.160;2023-09-18T14:57:17;1.10;;;0.93;;
3465;SDS011;1747;48.884;9.160;2023-09-18T14:59:45;1.70;;;0.88;;
3465;SDS011;1747;48.884;9.160;2023-09-18T15:02:12;2.65;;;0.90;;
3465;SDS011;1747;48.884;9.160;2023-09-18T15:04:41;3.85;;;1.00;;
3465;SDS011;1747;48.884;9.160;2023-09-18T15:07:08;1.55;;;1.00;;
3465;SDS011;1747;48.884;9.160;2023-09-18T15:09:35;1.45;;;0.93;;
3465;SDS011;1747;48.884;9.160;2023-09-18T15:12:02;3.85;;;1.20;;
3465;SDS011;1747;48.884;9.160;2023-09-18T15:14:32;1.75;;;1.00;;
3465;SDS011;1747;48.884;9.160;2023-09-18T15:17:01;3.55;;;1.30;;
3465;SDS011;1747;48.884;9.160;2023-09-18T15:19:28;2.28;;;1.00;;
3465;SDS011;1747;48.884;9.160;2023-09-18T15:21:55;2.13;;;0.75;;
3465;SDS011;1747;48.884;9.160;2023-09-18T15:24:24;4.75;;;1.02;;
3465;SDS011;1747;48.884;9.160;2023-09-18T15:26:51;3.00;;;0.82;;
3465;SDS011;1747;48.884;9.160;2023-09-18T15:29:22;1.95;;;0.90;;
3465;SDS011;1747;48.884;9.160;2023-09-18T15:31:48;1.65;;;0.88;;